createdAt,value
2022-08-19T00:04:30.799Z,8.70
2022-08-19T00:09:35.560Z,8.75
2022-08-19T00:14:39.100Z,8.80
2022-08-19T00:19:42.455Z,9.70
2022-08-19T00:24:49.570Z,9.95
2022-08-19T00:29:53.809Z,9.52
2022-08-19T00:34:56.625Z,10.43
2022-08-19T00:40:00.832Z,9.60
2022-08-19T00:45:04.641Z,9.25
2022-08-19T00:50:08.443Z,9.13
2022-08-19T00:55:15.417Z,10.13
2022-08-19T01:00:20.619Z,10.07
2022-08-19T01:05:26.140Z,10.07
2022-08-19T01:10:36.695Z,10.05
2022-08-19T01:15:43.880Z,9.65
2022-08-19T01:20:47.067Z,9.45
2022-08-19T01:25:53.152Z,9.63
2022-08-19T01:30:57.186Z,9.63
2022-08-19T01:36:06.555Z,9.88
2022-08-19T01:41:11.254Z,10.45
2022-08-19T01:46:14.272Z,10.85
2022-08-19T01:51:17.282Z,10.38
2022-08-19T01:56:21.792Z,10.88
2022-08-19T02:01:24.577Z,11.68
2022-08-19T02:06:34.205Z,11.52
2022-08-19T02:11:39.990Z,12.07
2022-08-19T02:16:42.755Z,11.98
2022-08-19T02:21:45.555Z,11.13
2022-08-19T02:26:49.547Z,11.20
2022-08-19T02:31:52.590Z,11.52
2022-08-19T02:36:55.296Z,11.73
2022-08-19T02:42:00.646Z,11.25
2022-08-19T02:47:03.799Z,11.20
2022-08-19T02:52:06.631Z,11.95
2022-08-19T02:57:10.714Z,11.38
2022-08-19T03:02:13.410Z,12.45
2022-08-19T03:07:17.442Z,12.60
2022-08-19T03:12:21.488Z,12.35
2022-08-19T03:17:24.234Z,11.52
2022-08-19T03:22:27.364Z,12.20
2022-08-19T03:27:34.332Z,13.48
2022-08-19T03:32:37.541Z,11.50
2022-08-19T03:37:48.174Z,12.18
2022-08-19T03:42:52.226Z,12.57
2022-08-19T03:47:54.954Z,12.57
2022-08-19T03:52:57.683Z,13.10
2022-08-19T03:58:02.023Z,12.35
2022-08-19T04:03:04.882Z,12.55
2022-08-19T04:08:10.807Z,12.82
2022-08-19T04:13:18.772Z,12.68
2022-08-19T04:18:21.472Z,12.80
2022-08-19T04:23:24.482Z,12.20
2022-08-19T04:28:28.635Z,12.00
2022-08-19T04:33:31.346Z,12.25
2022-08-19T04:38:34.085Z,12.07
2022-08-19T04:43:40.420Z,14.38
2022-08-19T04:48:49.562Z,16.40
2022-08-19T04:53:53.333Z,16.05
2022-08-19T04:58:58.152Z,18.67
2022-08-19T05:04:01.694Z,17.63
2022-08-19T05:09:05.512Z,16.05
2022-08-19T05:14:13.308Z,15.60
2022-08-19T05:19:33.762Z,17.10
2022-08-19T05:24:44.138Z,16.15
2022-08-19T05:29:55.536Z,15.02
2022-08-19T05:34:58.495Z,17.30
2022-08-19T05:40:01.274Z,14.73
2022-08-19T05:45:06.383Z,15.13
2022-08-19T05:50:09.946Z,14.57
2022-08-19T05:55:12.974Z,15.73
2022-08-19T06:00:22.629Z,15.80
2022-08-19T06:05:27.289Z,17.92
2022-08-19T06:10:30.974Z,14.82
2022-08-19T06:15:35.791Z,21.48
2022-08-19T06:20:55.049Z,12.70
2022-08-19T06:25:58.510Z,17.73
2022-08-19T06:31:08.300Z,19.75
2022-08-19T06:36:18.632Z,15.18
2022-08-19T06:41:21.475Z,22.67
2022-08-19T06:46:25.663Z,17.38
2022-08-19T06:51:29.978Z,22.27
2022-08-19T06:56:35.704Z,24.58
2022-08-19T07:01:41.779Z,23.95
2022-08-19T07:06:45.142Z,25.60
2022-08-19T07:11:58.067Z,18.35
2022-08-19T07:17:02.159Z,28.58
2022-08-19T07:22:07.115Z,23.95
2022-08-19T07:27:15.690Z,16.05
2022-08-19T07:32:19.765Z,20.50
2022-08-19T07:37:22.501Z,17.65
2022-08-19T07:42:25.842Z,26.02
2022-08-19T07:47:47.655Z,18.70
2022-08-19T07:52:53.242Z,22.42
2022-08-19T07:57:56.040Z,16.20
2022-08-19T08:03:00.093Z,18.20
2022-08-19T08:08:22.704Z,16.17
2022-08-19T08:13:30.618Z,15.57
2022-08-19T08:18:42.257Z,21.58
2022-08-19T08:23:45.042Z,16.10
2022-08-19T08:28:49.513Z,17.48
2022-08-19T08:33:53.925Z,23.85
2022-08-19T08:44:04.927Z,24.75
2022-08-19T08:49:21.322Z,16.75
2022-08-19T08:54:26.126Z,16.50
2022-08-19T08:59:33.244Z,15.95
2022-08-19T09:04:37.860Z,14.50
2022-08-19T09:09:44.408Z,16.88
2022-08-19T09:14:51.744Z,15.05
2022-08-19T09:19:58.845Z,13.77
2022-08-19T09:25:01.792Z,13.00
2022-08-19T09:30:05.469Z,14.05
2022-08-19T09:35:10.240Z,12.75
2022-08-19T09:40:13.926Z,12.45
2022-08-19T09:45:22.446Z,13.63
2022-08-19T09:50:26.814Z,14.57
2022-08-19T09:55:31.927Z,14.57
2022-08-19T10:00:35.256Z,14.77
2022-08-19T10:05:56.208Z,15.27
2022-08-19T10:10:59.656Z,15.00
2022-08-19T10:16:25.985Z,13.55
2022-08-19T10:21:36.146Z,14.00
2022-08-19T10:26:42.978Z,15.65
2022-08-19T10:32:01.983Z,14.07
2022-08-19T10:37:10.848Z,15.00
2022-08-19T10:42:17.861Z,12.48
2022-08-19T10:47:24.700Z,15.88
2022-08-19T10:52:38.975Z,13.63
2022-08-19T10:58:01.241Z,14.20
2022-08-19T11:03:04.752Z,13.35
2022-08-19T11:08:22.260Z,12.98
2022-08-19T11:13:26.545Z,12.32
2022-08-19T11:18:29.569Z,12.32
2022-08-19T11:23:33.657Z,11.93
2022-08-19T11:28:36.461Z,12.73
2022-08-19T11:33:39.395Z,11.98
2022-08-19T11:38:43.597Z,12.13
2022-08-19T11:43:46.511Z,11.85
2022-08-19T11:48:50.637Z,12.05
2022-08-19T11:53:55.258Z,11.70
2022-08-19T11:58:58.592Z,10.93
2022-08-19T12:04:01.736Z,10.88
2022-08-19T12:09:08.187Z,10.23
2022-08-19T12:14:14.968Z,9.15
2022-08-19T12:19:21.754Z,10.23
2022-08-19T12:24:26.805Z,10.45
2022-08-19T12:29:30.650Z,8.77
2022-08-19T12:34:34.291Z,8.23
2022-08-19T12:39:41.082Z,8.57
2022-08-19T12:44:44.929Z,7.70
2022-08-19T12:49:53.791Z,7.93
2022-08-19T12:54:59.579Z,8.20
2022-08-19T13:00:07.745Z,8.65
2022-08-19T13:05:12.498Z,8.15
2022-08-19T13:10:18.768Z,7.75
2022-08-19T13:15:24.033Z,7.78
2022-08-19T13:20:27.690Z,7.85
2022-08-19T13:25:31.907Z,7.45
2022-08-19T13:30:52.719Z,7.85
2022-08-19T13:36:01.321Z,7.53
2022-08-19T13:41:13.292Z,6.90
2022-08-19T13:46:17.600Z,7.50
2022-08-19T13:51:20.348Z,7.13
2022-08-19T13:56:26.531Z,6.68
2022-08-19T14:01:30.334Z,6.28
2022-08-19T14:06:33.002Z,6.72
2022-08-19T14:11:37.052Z,6.68
2022-08-19T14:16:39.973Z,6.00
2022-08-19T14:21:42.969Z,6.13
2022-08-19T14:26:47.135Z,6.38
2022-08-19T14:31:49.876Z,6.60
2022-08-19T14:36:52.612Z,5.65
2022-08-19T14:41:57.156Z,6.70
2022-08-19T14:46:59.809Z,5.80
2022-08-19T14:52:03.990Z,6.25
2022-08-19T14:57:07.977Z,6.63
2022-08-19T15:02:33.660Z,8.68
2022-08-19T15:07:33.556Z,8.75
2022-08-19T15:12:37.985Z,6.90
2022-08-19T15:17:45.219Z,5.85
2022-08-19T15:22:48.999Z,6.20
2022-08-19T15:27:53.743Z,5.45
2022-08-19T15:32:57.287Z,5.63
2022-08-19T15:37:59.969Z,5.05
2022-08-19T15:43:04.525Z,4.95
2022-08-19T15:48:07.183Z,4.75
2022-08-19T15:53:11.713Z,4.90
2022-08-19T15:58:34.022Z,4.90
2022-08-19T16:03:54.356Z,4.20
2022-08-19T16:08:59.227Z,4.25
2022-08-19T16:14:04.038Z,4.25
2022-08-19T16:19:10.623Z,4.65
2022-08-19T16:24:16.744Z,4.38
2022-08-19T16:29:34.102Z,4.78
2022-08-19T16:34:38.918Z,4.45
2022-08-19T16:39:44.309Z,4.22
2022-08-19T16:44:48.452Z,4.35
2022-08-19T16:49:53.976Z,4.40
2022-08-19T16:54:58.084Z,4.60
2022-08-19T17:00:05.161Z,4.60
2022-08-19T17:05:10.013Z,4.63
2022-08-19T17:10:12.667Z,4.05
2022-08-19T17:15:16.656Z,4.55
2022-08-19T17:20:19.603Z,4.18
2022-08-19T17:25:22.263Z,4.00
2022-08-19T17:30:26.768Z,3.88
2022-08-19T17:35:29.467Z,3.58
2022-08-19T17:40:32.395Z,3.97
2022-08-19T17:45:36.661Z,3.42
2022-08-19T17:50:40.301Z,3.90
2022-08-19T17:55:42.948Z,3.78
2022-08-19T18:00:55.359Z,3.22
2022-08-19T18:05:58.529Z,3.70
2022-08-19T18:11:01.224Z,4.00
2022-08-19T18:16:06.923Z,4.22
2022-08-19T18:21:09.919Z,4.40
2022-08-19T18:26:12.683Z,4.10
2022-08-19T18:31:17.039Z,3.97
2022-08-19T18:36:37.366Z,3.83
2022-08-19T18:42:01.008Z,4.07
2022-08-19T18:47:22.619Z,3.75
2022-08-19T18:52:27.161Z,3.95
2022-08-19T18:57:29.925Z,3.63
2022-08-19T19:02:38.437Z,4.43
2022-08-19T19:07:41.832Z,4.20
2022-08-19T19:12:45.491Z,4.30
2022-08-19T19:17:50.053Z,3.47
2022-08-19T19:22:52.821Z,4.85
2022-08-19T19:27:59.624Z,4.10
2022-08-19T19:33:03.713Z,4.63
2022-08-19T19:38:06.436Z,5.30
2022-08-19T19:43:09.295Z,5.35
2022-08-19T19:48:16.239Z,4.88
2022-08-19T19:53:18.897Z,5.28
2022-08-19T19:58:28.525Z,5.00
2022-08-19T20:03:33.315Z,5.43
2022-08-19T20:08:54.077Z,5.32
2022-08-19T20:13:56.768Z,5.40
2022-08-19T20:19:03.465Z,5.72
2022-08-19T20:24:09.173Z,5.47
2022-08-19T20:29:37.996Z,5.63
2022-08-19T20:34:37.236Z,5.15
2022-08-19T20:39:40.005Z,4.95
2022-08-19T20:44:42.771Z,4.80
2022-08-19T20:49:47.257Z,5.40
2022-08-19T20:54:50.025Z,5.18
2022-08-19T20:59:52.705Z,5.00
2022-08-19T21:04:56.726Z,4.65
2022-08-19T21:10:02.978Z,4.28
2022-08-19T21:15:08.379Z,4.10
2022-08-19T21:20:12.683Z,3.75
2022-08-19T21:25:17.117Z,3.75
2022-08-19T21:30:19.983Z,3.97
2022-08-19T21:35:24.569Z,3.20
2022-08-19T21:40:28.013Z,2.60
2022-08-19T21:45:30.740Z,2.63
2022-08-19T21:50:35.131Z,2.50
2022-08-19T21:55:38.270Z,2.50
2022-08-19T22:00:41.147Z,3.13
2022-08-19T22:05:45.793Z,2.40
2022-08-19T22:10:49.504Z,2.40
2022-08-19T22:15:52.545Z,2.20
2022-08-19T22:20:56.619Z,2.15
2022-08-19T22:25:59.252Z,1.90
2022-08-19T22:31:02.396Z,2.15
2022-08-19T22:36:08.546Z,2.00
2022-08-19T22:41:11.801Z,1.85
2022-08-19T22:46:17.429Z,2.15
2022-08-19T22:51:39.383Z,2.30
2022-08-19T22:56:43.273Z,2.15
2022-08-19T23:01:46.992Z,2.10
2022-08-19T23:06:52.867Z,2.28
2022-08-19T23:11:55.544Z,2.60
2022-08-19T23:16:59.257Z,2.05
2022-08-19T23:22:05.041Z,2.83
2022-08-19T23:27:25.186Z,2.72
2022-08-19T23:32:27.923Z,3.30
2022-08-19T23:37:32.043Z,3.85
2022-08-19T23:42:35.342Z,3.78
2022-08-19T23:47:37.978Z,2.92
2022-08-19T23:52:47.668Z,3.13
2022-08-19T23:57:50.458Z,3.63
